sensor_id;sensor_type;location;lat;lon;timestamp;temperature;humidity
41953;DHT22;63613;28.200;112.870;2023-11-22T00:01:18;20.40;55.80
41953;DHT22;63613;28.200;112.870;2023-11-22T00:03:45;20.40;55.90
41953;DHT22;63613;28.200;112.870;2023-11-22T00:06:11;20.40;55.10
41953;DHT22;63613;28.200;112.870;2023-11-22T00:08:38;20.40;55.00
41953;DHT22;63613;28.200;112.870;2023-11-22T00:11:05;20.30;55.20
41953;DHT22;63613;28.200;112.870;2023-11-22T00:13:32;20.40;55.10
41953;DHT22;63613;28.200;112.870;2023-11-22T00:15:59;20.40;55.80
41953;DHT22;63613;28.200;112.870;2023-11-22T00:18:25;20.40;55.20
41953;DHT22;63613;28.200;112.870;2023-11-22T00:21:13;20.60;59.50
41953;DHT22;63613;28.200;112.870;2023-11-22T00:23:40;20.80;59.60
41953;DHT22;63613;28.200;112.870;2023-11-22T00:26:08;20.80;58.70
41953;DHT22;63613;28.200;112.870;2023-11-22T00:28:35;20.80;56.80
41953;DHT22;63613;28.200;112.870;2023-11-22T00:31:02;20.80;57.10
41953;DHT22;63613;28.200;112.870;2023-11-22T00:33:49;20.80;56.30
41953;DHT22;63613;28.200;112.870;2023-11-22T00:36:15;20.80;56.10
41953;DHT22;63613;28.200;112.870;2023-11-22T00:38:42;20.80;55.70
41953;DHT22;63613;28.200;112.870;2023-11-22T00:41:32;20.90;56.00
41953;DHT22;63613;28.200;112.870;2023-11-22T00:44:19;20.90;55.90
41953;DHT22;63613;28.200;112.870;2023-11-22T00:46:46;20.80;55.20
41953;DHT22;63613;28.200;112.870;2023-11-22T00:49:13;20.80;55.70
41953;DHT22;63613;28.200;112.870;2023-11-22T00:51:39;20.90;55.70
41953;DHT22;63613;28.200;112.870;2023-11-22T00:54:06;21.00;55.70
41953;DHT22;63613;28.200;112.870;2023-11-22T00:56:53;21.00;55.70
41953;DHT22;63613;28.200;112.870;2023-11-22T00:59:20;21.00;55.60
41953;DHT22;63613;28.200;112.870;2023-11-22T01:01:47;21.00;55.40
41953;DHT22;63613;28.200;112.870;2023-11-22T01:04:13;20.90;55.40
41953;DHT22;63613;28.200;112.870;2023-11-22T01:06:41;21.00;55.40
41953;DHT22;63613;28.200;112.870;2023-11-22T01:09:08;21.10;55.10
41953;DHT22;63613;28.200;112.870;2023-11-22T01:11:40;21.00;54.90
41953;DHT22;63613;28.200;112.870;2023-11-22T01:14:07;21.00;54.80
41953;DHT22;63613;28.200;112.870;2023-11-22T01:16:34;21.10;54.70
41953;DHT22;63613;28.200;112.870;2023-11-22T01:19:03;21.10;54.70
41953;DHT22;63613;28.200;112.870;2023-11-22T01:21:29;21.10;54.80
41953;DHT22;63613;28.200;112.870;2023-11-22T01:23:57;21.20;54.80
41953;DHT22;63613;28.200;112.870;2023-11-22T01:26:24;21.10;54.80
41953;DHT22;63613;28.200;112.870;2023-11-22T01:28:51;21.10;54.60
41953;DHT22;63613;28.200;112.870;2023-11-22T01:31:18;21.30;54.40
41953;DHT22;63613;28.200;112.870;2023-11-22T01:33:47;21.30;54.30
41953;DHT22;63613;28.200;112.870;2023-11-22T01:36:14;21.30;54.40
41953;DHT22;63613;28.200;112.870;2023-11-22T01:38:43;21.40;54.40
41953;DHT22;63613;28.200;112.870;2023-11-22T01:41:10;21.50;54.30
41953;DHT22;63613;28.200;112.870;2023-11-22T01:43:39;21.40;54.20
41953;DHT22;63613;28.200;112.870;2023-11-22T01:46:24;21.50;54.00
41953;DHT22;63613;28.200;112.870;2023-11-22T01:48:52;21.50;53.90
41953;DHT22;63613;28.200;112.870;2023-11-22T01:51:21;21.50;53.70
41953;DHT22;63613;28.200;112.870;2023-11-22T01:53:51;21.50;53.70
41953;DHT22;63613;28.200;112.870;2023-11-22T01:56:23;21.50;53.80
41953;DHT22;63613;28.200;112.870;2023-11-22T01:58:52;21.50;53.80
41953;DHT22;63613;28.200;112.870;2023-11-22T02:01:21;21.50;54.00
41953;DHT22;63613;28.200;112.870;2023-11-22T02:03:48;21.60;54.10
41953;DHT22;63613;28.200;112.870;2023-11-22T02:06:17;21.60;54.00
41953;DHT22;63613;28.200;112.870;2023-11-22T02:08:44;21.70;53.90
41953;DHT22;63613;28.200;112.870;2023-11-22T02:11:11;21.80;53.70
41953;DHT22;63613;28.200;112.870;2023-11-22T02:13:38;21.80;53.60
41953;DHT22;63613;28.200;112.870;2023-11-22T02:16:05;21.80;53.50
41953;DHT22;63613;28.200;112.870;2023-11-22T02:18:32;21.80;53.50
41953;DHT22;63613;28.200;112.870;2023-11-22T02:20:59;21.90;53.40
41953;DHT22;63613;28.200;112.870;2023-11-22T02:23:28;21.80;53.30
41953;DHT22;63613;28.200;112.870;2023-11-22T02:25:55;21.80;53.40
41953;DHT22;63613;28.200;112.870;2023-11-22T02:28:22;21.80;53.40
41953;DHT22;63613;28.200;112.870;2023-11-22T02:30:49;21.80;53.40
41953;DHT22;63613;28.200;112.870;2023-11-22T02:33:16;21.80;53.50
41953;DHT22;63613;28.200;112.870;2023-11-22T02:35:43;21.80;53.50
41953;DHT22;63613;28.200;112.870;2023-11-22T02:38:10;21.80;53.70
41953;DHT22;63613;28.200;112.870;2023-11-22T02:40:36;21.80;53.70
41953;DHT22;63613;28.200;112.870;2023-11-22T02:43:03;21.80;53.80
41953;DHT22;63613;28.200;112.870;2023-11-22T02:45:35;21.80;53.80
41953;DHT22;63613;28.200;112.870;2023-11-22T02:48:02;21.80;53.80
41953;DHT22;63613;28.200;112.870;2023-11-22T02:50:30;21.80;53.90
41953;DHT22;63613;28.200;112.870;2023-11-22T02:53:00;21.80;53.90
41953;DHT22;63613;28.200;112.870;2023-11-22T02:55:28;21.80;54.00
41953;DHT22;63613;28.200;112.870;2023-11-22T02:57:55;21.80;54.10
41953;DHT22;63613;28.200;112.870;2023-11-22T03:00:24;21.80;54.00
41953;DHT22;63613;28.200;112.870;2023-11-22T03:02:51;21.80;54.10
41953;DHT22;63613;28.200;112.870;2023-11-22T03:05:23;21.80;54.10
41953;DHT22;63613;28.200;112.870;2023-11-22T03:07:50;21.80;54.10
41953;DHT22;63613;28.200;112.870;2023-11-22T03:10:17;21.80;54.20
41953;DHT22;63613;28.200;112.870;2023-11-22T03:12:46;21.80;54.30
41953;DHT22;63613;28.200;112.870;2023-11-22T03:15:13;21.80;54.40
41953;DHT22;63613;28.200;112.870;2023-11-22T03:17:40;21.90;54.40
41953;DHT22;63613;28.200;112.870;2023-11-22T03:20:07;21.80;54.40
41953;DHT22;63613;28.200;112.870;2023-11-22T03:22:38;21.90;54.40
41953;DHT22;63613;28.200;112.870;2023-11-22T03:25:05;22.00;54.30
41953;DHT22;63613;28.200;112.870;2023-11-22T03:27:38;22.00;54.40
41953;DHT22;63613;28.200;112.870;2023-11-22T03:30:05;22.00;54.40
41953;DHT22;63613;28.200;112.870;2023-11-22T03:32:43;22.00;54.50
41953;DHT22;63613;28.200;112.870;2023-11-22T03:35:10;22.00;54.60
41953;DHT22;63613;28.200;112.870;2023-11-22T03:37:38;22.00;54.50
41953;DHT22;63613;28.200;112.870;2023-11-22T03:40:06;22.10;54.80
41953;DHT22;63613;28.200;112.870;2023-11-22T03:42:32;22.10;54.60
41953;DHT22;63613;28.200;112.870;2023-11-22T03:45:19;22.20;54.90
41953;DHT22;63613;28.200;112.870;2023-11-22T03:47:46;22.20;54.80
41953;DHT22;63613;28.200;112.870;2023-11-22T03:50:13;22.20;54.80
41953;DHT22;63613;28.200;112.870;2023-11-22T03:52:40;22.20;54.80
41953;DHT22;63613;28.200;112.870;2023-11-22T03:55:07;22.20;55.00
41953;DHT22;63613;28.200;112.870;2023-11-22T03:57:35;22.30;54.90
41953;DHT22;63613;28.200;112.870;2023-11-22T04:00:02;22.30;55.10
41953;DHT22;63613;28.200;112.870;2023-11-22T04:02:29;22.30;55.50
41953;DHT22;63613;28.200;112.870;2023-11-22T04:04:55;22.40;55.20
41953;DHT22;63613;28.200;112.870;2023-11-22T04:07:23;22.60;54.60
41953;DHT22;63613;28.200;112.870;2023-11-22T04:09:52;22.70;54.60
41953;DHT22;63613;28.200;112.870;2023-11-22T04:12:20;22.70;54.40
41953;DHT22;63613;28.200;112.870;2023-11-22T04:14:46;22.80;54.90
41953;DHT22;63613;28.200;112.870;2023-11-22T04:17:14;22.80;54.40
41953;DHT22;63613;28.200;112.870;2023-11-22T04:19:41;23.00;54.30
41953;DHT22;63613;28.200;112.870;2023-11-22T04:22:08;23.00;53.80
41953;DHT22;63613;28.200;112.870;2023-11-22T04:24:38;23.10;52.80
41953;DHT22;63613;28.200;112.870;2023-11-22T04:27:05;23.20;52.90
41953;DHT22;63613;28.200;112.870;2023-11-22T04:29:32;23.30;53.70
41953;DHT22;63613;28.200;112.870;2023-11-22T04:32:19;23.30;53.30
41953;DHT22;63613;28.200;112.870;2023-11-22T04:34:49;23.30;53.80
41953;DHT22;63613;28.200;112.870;2023-11-22T04:37:16;23.30;54.40
41953;DHT22;63613;28.200;112.870;2023-11-22T04:39:44;23.20;53.70
41953;DHT22;63613;28.200;112.870;2023-11-22T04:42:11;23.20;53.40
41953;DHT22;63613;28.200;112.870;2023-11-22T04:44:38;23.30;53.60
41953;DHT22;63613;28.200;112.870;2023-11-22T04:47:04;23.30;54.20
41953;DHT22;63613;28.200;112.870;2023-11-22T04:49:32;23.30;54.10
41953;DHT22;63613;28.200;112.870;2023-11-22T04:52:19;23.30;54.70
41953;DHT22;63613;28.200;112.870;2023-11-22T04:54:46;23.30;54.80
41953;DHT22;63613;28.200;112.870;2023-11-22T04:57:13;23.40;54.70
41953;DHT22;63613;28.200;112.870;2023-11-22T04:59:40;23.40;54.10
41953;DHT22;63613;28.200;112.870;2023-11-22T05:02:06;23.50;54.20
41953;DHT22;63613;28.200;112.870;2023-11-22T05:04:39;23.50;53.20
41953;DHT22;63613;28.200;112.870;2023-11-22T05:07:06;23.60;53.20
41953;DHT22;63613;28.200;112.870;2023-11-22T05:09:38;23.60;53.00
41953;DHT22;63613;28.200;112.870;2023-11-22T05:12:05;23.80;53.10
41953;DHT22;63613;28.200;112.870;2023-11-22T05:14:33;23.80;53.00
41953;DHT22;63613;28.200;112.870;2023-11-22T05:17:00;23.80;52.60
41953;DHT22;63613;28.200;112.870;2023-11-22T05:19:27;24.10;52.90
41953;DHT22;63613;28.200;112.870;2023-11-22T05:21:54;24.20;52.40
41953;DHT22;63613;28.200;112.870;2023-11-22T05:24:21;24.30;51.90
41953;DHT22;63613;28.200;112.870;2023-11-22T05:26:48;24.30;52.50
41953;DHT22;63613;28.200;112.870;2023-11-22T05:29:18;24.40;52.20
41953;DHT22;63613;28.200;112.870;2023-11-22T05:31:45;24.40;52.10
41953;DHT22;63613;28.200;112.870;2023-11-22T05:34:11;24.50;52.00
41953;DHT22;63613;28.200;112.870;2023-11-22T05:36:39;24.50;52.90
41953;DHT22;63613;28.200;112.870;2023-11-22T05:39:06;24.50;54.30
41953;DHT22;63613;28.200;112.870;2023-11-22T05:41:33;24.70;53.70
41953;DHT22;63613;28.200;112.870;2023-11-22T05:44:00;24.70;53.70
41953;DHT22;63613;28.200;112.870;2023-11-22T05:46:31;24.60;52.70
41953;DHT22;63613;28.200;112.870;2023-11-22T05:49:01;24.50;54.70
41953;DHT22;63613;28.200;112.870;2023-11-22T05:51:42;24.30;54.30
41953;DHT22;63613;28.200;112.870;2023-11-22T05:54:09;24.20;52.50
41953;DHT22;63613;28.200;112.870;2023-11-22T05:56:38;24.20;55.00
41953;DHT22;63613;28.200;112.870;2023-11-22T05:59:06;24.10;55.30
41953;DHT22;63613;28.200;112.870;2023-11-22T06:01:33;24.10;56.50
41953;DHT22;63613;28.200;112.870;2023-11-22T06:04:00;24.00;57.40
41953;DHT22;63613;28.200;112.870;2023-11-22T06:06:26;24.00;57.60
41953;DHT22;63613;28.200;112.870;2023-11-22T06:08:55;24.00;57.60
41953;DHT22;63613;28.200;112.870;2023-11-22T06:11:22;24.00;57.70
41953;DHT22;63613;28.200;112.870;2023-11-22T06:14:08;24.10;57.00
41953;DHT22;63613;28.200;112.870;2023-11-22T06:16:35;24.00;55.40
41953;DHT22;63613;28.200;112.870;2023-11-22T06:19:02;23.90;54.60
41953;DHT22;63613;28.200;112.870;2023-11-22T06:21:49;24.00;55.30
41953;DHT22;63613;28.200;112.870;2023-11-22T06:24:16;24.00;55.30
41953;DHT22;63613;28.200;112.870;2023-11-22T06:26:43;24.10;54.90
41953;DHT22;63613;28.200;112.870;2023-11-22T06:29:15;24.20;55.70
41953;DHT22;63613;28.200;112.870;2023-11-22T06:31:45;24.20;55.70
41953;DHT22;63613;28.200;112.870;2023-11-22T06:34:12;24.30;55.20
41953;DHT22;63613;28.200;112.870;2023-11-22T06:36:39;24.20;56.40
41953;DHT22;63613;28.200;112.870;2023-11-22T06:39:06;24.00;57.20
41953;DHT22;63613;28.200;112.870;2023-11-22T06:41:35;23.90;56.80
41953;DHT22;63613;28.200;112.870;2023-11-22T06:44:02;23.80;57.70
41953;DHT22;63613;28.200;112.870;2023-11-22T06:46:31;23.80;58.00
41953;DHT22;63613;28.200;112.870;2023-11-22T06:49:00;23.70;58.20
41953;DHT22;63613;28.200;112.870;2023-11-22T06:51:28;23.70;57.50
41953;DHT22;63613;28.200;112.870;2023-11-22T06:53:55;23.60;58.00
41953;DHT22;63613;28.200;112.870;2023-11-22T06:56:22;23.50;57.60
41953;DHT22;63613;28.200;112.870;2023-11-22T06:58:51;23.50;57.90
41953;DHT22;63613;28.200;112.870;2023-11-22T07:01:22;23.50;58.80
41953;DHT22;63613;28.200;112.870;2023-11-22T07:03:49;23.50;58.90
41953;DHT22;63613;28.200;112.870;2023-11-22T07:06:16;23.50;59.50
41953;DHT22;63613;28.200;112.870;2023-11-22T07:08:46;23.50;58.80
41953;DHT22;63613;28.200;112.870;2023-11-22T07:11:20;23.50;59.30
41953;DHT22;63613;28.200;112.870;2023-11-22T07:13:55;23.50;59.60
41953;DHT22;63613;28.200;112.870;2023-11-22T07:16:22;23.40;59.00
41953;DHT22;63613;28.200;112.870;2023-11-22T07:18:49;23.30;59.50
41953;DHT22;63613;28.200;112.870;2023-11-22T07:21:16;23.30;59.80
41953;DHT22;63613;28.200;112.870;2023-11-22T07:23:47;23.30;59.70
41953;DHT22;63613;28.200;112.870;2023-11-22T07:26:14;23.30;59.70
41953;DHT22;63613;28.200;112.870;2023-11-22T07:28:41;23.20;59.50
41953;DHT22;63613;28.200;112.870;2023-11-22T07:31:10;23.20;59.80
41953;DHT22;63613;28.200;112.870;2023-11-22T07:33:37;23.10;59.60
41953;DHT22;63613;28.200;112.870;2023-11-22T07:36:05;23.10;60.40
41953;DHT22;63613;28.200;112.870;2023-11-22T07:38:32;23.00;60.60
41953;DHT22;63613;28.200;112.870;2023-11-22T07:41:01;23.00;60.80
41953;DHT22;63613;28.200;112.870;2023-11-22T07:43:38;23.00;61.10
41953;DHT22;63613;28.200;112.870;2023-11-22T07:46:09;22.90;59.00
41953;DHT22;63613;28.200;112.870;2023-11-22T07:48:39;22.90;59.90
41953;DHT22;63613;28.200;112.870;2023-11-22T07:51:12;22.90;60.10
41953;DHT22;63613;28.200;112.870;2023-11-22T07:53:42;22.80;58.00
41953;DHT22;63613;28.200;112.870;2023-11-22T07:56:12;22.80;59.20
41953;DHT22;63613;28.200;112.870;2023-11-22T07:58:59;22.80;60.30
41953;DHT22;63613;28.200;112.870;2023-11-22T08:01:26;22.80;61.00
41953;DHT22;63613;28.200;112.870;2023-11-22T08:03:56;22.80;60.30
41953;DHT22;63613;28.200;112.870;2023-11-22T08:06:22;22.80;61.20
41953;DHT22;63613;28.200;112.870;2023-11-22T08:08:49;22.80;61.80
41953;DHT22;63613;28.200;112.870;2023-11-22T08:11:17;22.80;61.90
41953;DHT22;63613;28.200;112.870;2023-11-22T08:13:46;22.70;62.10
41953;DHT22;63613;28.200;112.870;2023-11-22T08:16:18;22.70;61.30
41953;DHT22;63613;28.200;112.870;2023-11-22T08:18:47;22.70;61.00
41953;DHT22;63613;28.200;112.870;2023-11-22T08:21:14;22.70;60.60
41953;DHT22;63613;28.200;112.870;2023-11-22T08:23:41;22.70;61.10
41953;DHT22;63613;28.200;112.870;2023-11-22T08:26:09;22.60;61.50
41953;DHT22;63613;28.200;112.870;2023-11-22T08:28:42;22.60;61.30
41953;DHT22;63613;28.200;112.870;2023-11-22T08:31:10;22.60;61.80
41953;DHT22;63613;28.200;112.870;2023-11-22T08:33:40;22.50;61.20
41953;DHT22;63613;28.200;112.870;2023-11-22T08:36:07;22.50;60.80
41953;DHT22;63613;28.200;112.870;2023-11-22T08:38:38;22.50;61.40
41953;DHT22;63613;28.200;112.870;2023-11-22T08:41:09;22.50;61.90
41953;DHT22;63613;28.200;112.870;2023-11-22T08:43:40;22.40;60.30
41953;DHT22;63613;28.200;112.870;2023-11-22T08:46:08;22.40;61.20
41953;DHT22;63613;28.200;112.870;2023-11-22T08:48:37;22.40;60.20
41953;DHT22;63613;28.200;112.870;2023-11-22T08:51:04;22.30;59.40
41953;DHT22;63613;28.200;112.870;2023-11-22T08:53:31;22.30;59.60
41953;DHT22;63613;28.200;112.870;2023-11-22T08:55:57;22.30;59.30
41953;DHT22;63613;28.200;112.870;2023-11-22T08:58:24;22.30;60.20
41953;DHT22;63613;28.200;112.870;2023-11-22T09:00:51;22.30;60.60
41953;DHT22;63613;28.200;112.870;2023-11-22T09:03:19;22.30;60.20
41953;DHT22;63613;28.200;112.870;2023-11-22T09:05:46;22.40;61.60
41953;DHT22;63613;28.200;112.870;2023-11-22T09:08:15;22.30;62.10
41953;DHT22;63613;28.200;112.870;2023-11-22T09:10:42;22.30;60.30
41953;DHT22;63613;28.200;112.870;2023-11-22T09:13:10;22.30;61.00
41953;DHT22;63613;28.200;112.870;2023-11-22T09:15:39;22.20;59.90
41953;DHT22;63613;28.200;112.870;2023-11-22T09:18:09;22.20;60.90
41953;DHT22;63613;28.200;112.870;2023-11-22T09:20:36;22.30;61.60
41953;DHT22;63613;28.200;112.870;2023-11-22T09:23:03;22.30;61.40
41953;DHT22;63613;28.200;112.870;2023-11-22T09:25:30;22.30;61.50
41953;DHT22;63613;28.200;112.870;2023-11-22T09:27:59;22.20;60.00
41953;DHT22;63613;28.200;112.870;2023-11-22T09:30:31;22.10;59.90
41953;DHT22;63613;28.200;112.870;2023-11-22T09:33:10;22.20;61.10
41953;DHT22;63613;28.200;112.870;2023-11-22T09:35:38;22.20;61.00
41953;DHT22;63613;28.200;112.870;2023-11-22T09:38:08;22.20;60.70
41953;DHT22;63613;28.200;112.870;2023-11-22T09:40:48;22.20;61.80
41953;DHT22;63613;28.200;112.870;2023-11-22T09:43:19;22.30;62.40
41953;DHT22;63613;28.200;112.870;2023-11-22T09:45:49;22.20;61.30
41953;DHT22;63613;28.200;112.870;2023-11-22T09:53:56;22.20;63.40
41953;DHT22;63613;28.200;112.870;2023-11-22T09:56:25;22.20;61.70
41953;DHT22;63613;28.200;112.870;2023-11-22T09:58:54;22.10;59.40
41953;DHT22;63613;28.200;112.870;2023-11-22T10:01:40;22.00;58.80
41953;DHT22;63613;28.200;112.870;2023-11-22T10:04:07;22.00;59.00
41953;DHT22;63613;28.200;112.870;2023-11-22T10:06:36;22.00;58.80
41953;DHT22;63613;28.200;112.870;2023-11-22T10:09:04;22.00;58.80
41953;DHT22;63613;28.200;112.870;2023-11-22T10:11:35;22.00;59.50
41953;DHT22;63613;28.200;112.870;2023-11-22T10:14:09;22.00;59.50
41953;DHT22;63613;28.200;112.870;2023-11-22T10:16:36;22.10;59.70
41953;DHT22;63613;28.200;112.870;2023-11-22T10:19:04;22.10;60.10
41953;DHT22;63613;28.200;112.870;2023-11-22T10:22:06;22.10;60.60
41953;DHT22;63613;28.200;112.870;2023-11-22T10:24:36;22.10;59.60
41953;DHT22;63613;28.200;112.870;2023-11-22T10:27:02;22.10;59.70
41953;DHT22;63613;28.200;112.870;2023-11-22T10:29:29;22.10;59.30
41953;DHT22;63613;28.200;112.870;2023-11-22T10:31:56;22.10;59.50
41953;DHT22;63613;28.200;112.870;2023-11-22T10:34:24;22.10;59.30
41953;DHT22;63613;28.200;112.870;2023-11-22T10:36:51;22.10;59.90
41953;DHT22;63613;28.200;112.870;2023-11-22T10:39:20;22.10;60.20
41953;DHT22;63613;28.200;112.870;2023-11-22T10:41:48;22.10;61.20
41953;DHT22;63613;28.200;112.870;2023-11-22T10:44:21;22.20;63.70
41953;DHT22;63613;28.200;112.870;2023-11-22T10:46:49;22.20;64.90
41953;DHT22;63613;28.200;112.870;2023-11-22T10:49:20;22.20;65.70
41953;DHT22;63613;28.200;112.870;2023-11-22T10:51:52;22.20;66.30
41953;DHT22;63613;28.200;112.870;2023-11-22T10:54:25;22.20;66.50
41953;DHT22;63613;28.200;112.870;2023-11-22T10:56:55;22.20;66.70
41953;DHT22;63613;28.200;112.870;2023-11-22T10:59:26;22.20;66.70
41953;DHT22;63613;28.200;112.870;2023-11-22T11:01:57;22.20;66.90
41953;DHT22;63613;28.200;112.870;2023-11-22T11:04:36;22.20;67.00
41953;DHT22;63613;28.200;112.870;2023-11-22T11:07:08;22.20;66.80
41953;DHT22;63613;28.200;112.870;2023-11-22T11:09:41;22.20;66.90
41953;DHT22;63613;28.200;112.870;2023-11-22T11:12:29;22.20;66.40
41953;DHT22;63613;28.200;112.870;2023-11-22T11:14:56;22.20;66.00
41953;DHT22;63613;28.200;112.870;2023-11-22T11:17:23;22.20;65.90
41953;DHT22;63613;28.200;112.870;2023-11-22T11:19:50;22.20;66.30
41953;DHT22;63613;28.200;112.870;2023-11-22T11:22:17;22.20;66.50
41953;DHT22;63613;28.200;112.870;2023-11-22T11:24:49;22.20;66.60
41953;DHT22;63613;28.200;112.870;2023-11-22T11:27:34;22.20;66.70
41953;DHT22;63613;28.200;112.870;2023-11-22T11:32:58;22.20;66.90
41953;DHT22;63613;28.200;112.870;2023-11-22T11:35:48;22.20;65.70
41953;DHT22;63613;28.200;112.870;2023-11-22T11:38:19;22.20;66.40
41953;DHT22;63613;28.200;112.870;2023-11-22T11:40:49;22.20;66.50
41953;DHT22;63613;28.200;112.870;2023-11-22T11:43:21;22.20;66.30
41953;DHT22;63613;28.200;112.870;2023-11-22T11:46:07;22.20;66.10
41953;DHT22;63613;28.200;112.870;2023-11-22T11:48:49;22.20;65.40
41953;DHT22;63613;28.200;112.870;2023-11-22T11:51:24;22.20;65.00
41953;DHT22;63613;28.200;112.870;2023-11-22T11:53:51;22.20;64.80
41953;DHT22;63613;28.200;112.870;2023-11-22T11:56:19;22.10;64.40
41953;DHT22;63613;28.200;112.870;2023-11-22T11:58:47;22.10;64.40
41953;DHT22;63613;28.200;112.870;2023-11-22T12:01:16;22.10;64.00
41953;DHT22;63613;28.200;112.870;2023-11-22T12:03:44;22.10;64.20
41953;DHT22;63613;28.200;112.870;2023-11-22T12:06:14;22.10;64.20
41953;DHT22;63613;28.200;112.870;2023-11-22T12:08:41;22.10;64.30
41953;DHT22;63613;28.200;112.870;2023-11-22T12:11:08;22.10;64.00
41953;DHT22;63613;28.200;112.870;2023-11-22T12:13:38;22.10;64.20
41953;DHT22;63613;28.200;112.870;2023-11-22T12:16:08;22.00;64.10
41953;DHT22;63613;28.200;112.870;2023-11-22T12:18:48;22.00;64.20
41953;DHT22;63613;28.200;112.870;2023-11-22T12:21:18;22.00;64.10
41953;DHT22;63613;28.200;112.870;2023-11-22T12:23:46;22.10;64.30
41953;DHT22;63613;28.200;112.870;2023-11-22T12:26:34;22.10;64.30
41953;DHT22;63613;28.200;112.870;2023-11-22T12:29:01;22.10;64.40
41953;DHT22;63613;28.200;112.870;2023-11-22T12:31:28;22.10;64.50
41953;DHT22;63613;28.200;112.870;2023-11-22T12:33:57;22.10;64.70
41953;DHT22;63613;28.200;112.870;2023-11-22T12:36:25;22.10;64.50
41953;DHT22;63613;28.200;112.870;2023-11-22T12:38:55;22.10;64.40
41953;DHT22;63613;28.200;112.870;2023-11-22T12:41:24;22.10;64.50
41953;DHT22;63613;28.200;112.870;2023-11-22T12:44:08;22.10;64.90
41953;DHT22;63613;28.200;112.870;2023-11-22T12:46:55;22.10;64.80
41953;DHT22;63613;28.200;112.870;2023-11-22T12:49:31;22.10;65.00
41953;DHT22;63613;28.200;112.870;2023-11-22T12:52:01;22.10;65.10
41953;DHT22;63613;28.200;112.870;2023-11-22T12:54:52;22.10;65.10
41953;DHT22;63613;28.200;112.870;2023-11-22T12:57:21;22.10;65.10
41953;DHT22;63613;28.200;112.870;2023-11-22T12:59:49;22.10;65.20
41953;DHT22;63613;28.200;112.870;2023-11-22T13:02:15;22.20;65.20
41953;DHT22;63613;28.200;112.870;2023-11-22T13:04:44;22.10;65.40
41953;DHT22;63613;28.200;112.870;2023-11-22T13:07:12;22.10;65.40
41953;DHT22;63613;28.200;112.870;2023-11-22T13:09:41;22.10;65.50
41953;DHT22;63613;28.200;112.870;2023-11-22T13:12:09;22.10;65.40
41953;DHT22;63613;28.200;112.870;2023-11-22T13:14:38;22.10;65.50
41953;DHT22;63613;28.200;112.870;2023-11-22T13:17:05;22.10;65.90
41953;DHT22;63613;28.200;112.870;2023-11-22T13:19:34;22.20;65.90
41953;DHT22;63613;28.200;112.870;2023-11-22T13:22:21;22.10;66.10
41953;DHT22;63613;28.200;112.870;2023-11-22T13:24:49;22.20;66.10
41953;DHT22;63613;28.200;112.870;2023-11-22T13:27:17;22.20;66.10
41953;DHT22;63613;28.200;112.870;2023-11-22T13:29:43;22.20;66.20
41953;DHT22;63613;28.200;112.870;2023-11-22T13:32:10;22.20;66.30
41953;DHT22;63613;28.200;112.870;2023-11-22T13:34:41;22.20;66.30
41953;DHT22;63613;28.200;112.870;2023-11-22T13:37:10;22.20;66.30
41953;DHT22;63613;28.200;112.870;2023-11-22T13:39:36;22.20;66.30
41953;DHT22;63613;28.200;112.870;2023-11-22T13:42:05;22.20;66.30
41953;DHT22;63613;28.200;112.870;2023-11-22T13:44:32;22.20;66.40
41953;DHT22;63613;28.200;112.870;2023-11-22T13:46:59;22.10;66.30
41953;DHT22;63613;28.200;112.870;2023-11-22T13:49:31;22.20;66.30
41953;DHT22;63613;28.200;112.870;2023-11-22T13:51:58;22.20;66.50
41953;DHT22;63613;28.200;112.870;2023-11-22T13:54:26;22.20;66.40
41953;DHT22;63613;28.200;112.870;2023-11-22T13:56:56;22.20;66.70
41953;DHT22;63613;28.200;112.870;2023-11-22T13:59:23;22.20;66.80
41953;DHT22;63613;28.200;112.870;2023-11-22T14:01:50;22.20;66.80
41953;DHT22;63613;28.200;112.870;2023-11-22T14:04:18;22.20;66.70
41953;DHT22;63613;28.200;112.870;2023-11-22T14:06:46;22.20;66.60
41953;DHT22;63613;28.200;112.870;2023-11-22T14:09:15;22.20;66.60
41953;DHT22;63613;28.200;112.870;2023-11-22T14:11:42;22.10;66.50
41953;DHT22;63613;28.200;112.870;2023-11-22T14:14:09;22.10;66.40
41953;DHT22;63613;28.200;112.870;2023-11-22T14:16:36;22.10;66.40
41953;DHT22;63613;28.200;112.870;2023-11-22T14:19:05;22.10;66.50
41953;DHT22;63613;28.200;112.870;2023-11-22T14:21:33;22.10;66.70
41953;DHT22;63613;28.200;112.870;2023-11-22T14:24:01;22.10;66.80
41953;DHT22;63613;28.200;112.870;2023-11-22T14:26:30;22.10;66.70
41953;DHT22;63613;28.200;112.870;2023-11-22T14:28:56;22.10;66.90
41953;DHT22;63613;28.200;112.870;2023-11-22T14:31:25;22.10;66.90
41953;DHT22;63613;28.200;112.870;2023-11-22T14:33:52;22.10;67.10
41953;DHT22;63613;28.200;112.870;2023-11-22T14:36:24;22.10;67.10
41953;DHT22;63613;28.200;112.870;2023-11-22T14:38:52;22.10;67.20
41953;DHT22;63613;28.200;112.870;2023-11-22T14:41:23;22.10;67.30
41953;DHT22;63613;28.200;112.870;2023-11-22T14:44:11;22.10;67.40
41953;DHT22;63613;28.200;112.870;2023-11-22T14:46:41;22.10;68.10
41953;DHT22;63613;28.200;112.870;2023-11-22T14:49:11;22.10;68.40
41953;DHT22;63613;28.200;112.870;2023-11-22T14:51:40;22.00;68.90
41953;DHT22;63613;28.200;112.870;2023-11-22T14:54:07;22.00;69.30
41953;DHT22;63613;28.200;112.870;2023-11-22T14:56:34;22.00;69.50
41953;DHT22;63613;28.200;112.870;2023-11-22T14:59:02;22.00;69.70
41953;DHT22;63613;28.200;112.870;2023-11-22T15:01:29;22.00;69.80
41953;DHT22;63613;28.200;112.870;2023-11-22T15:03:57;21.90;69.90
41953;DHT22;63613;28.200;112.870;2023-11-22T15:06:29;22.00;70.00
41953;DHT22;63613;28.200;112.870;2023-11-22T15:08:56;21.90;70.00
41953;DHT22;63613;28.200;112.870;2023-11-22T15:11:25;21.90;70.10
41953;DHT22;63613;28.200;112.870;2023-11-22T15:13:52;21.90;70.00
41953;DHT22;63613;28.200;112.870;2023-11-22T15:16:19;21.90;69.90
41953;DHT22;63613;28.200;112.870;2023-11-22T15:18:46;21.90;70.00
41953;DHT22;63613;28.200;112.870;2023-11-22T15:21:16;21.90;69.90
41953;DHT22;63613;28.200;112.870;2023-11-22T15:23:43;21.90;70.00
41953;DHT22;63613;28.200;112.870;2023-11-22T15:26:13;21.90;69.70